Time;durP1;ratioP1;P1;durP2;ratioP2;P2;SDS_P1;SDS_P2;PMS_P1;PMS_P2;Temp;Humidity;BMP_temperature;BMP_pressure;BME280_temperature;BME280_humidity;BME280_pressure;Samples;Min_cycle;Max_cycle;Signal;HPM_P1;HPM_P2
2022/09/06 00:00:15;;;;;;;8.57;4.50;;;22.50;99.90;;;;;;5013506;28;20034;-61
2022/09/06 00:02:42;;;;;;;5.90;4.00;;;22.50;99.90;;;;;;5012954;28;20065;-63
2022/09/06 00:05:09;;;;;;;5.82;3.95;;;22.50;99.90;;;;;;5017935;28;20403;-61
2022/09/06 00:07:36;;;;;;;7.78;4.00;;;22.40;99.90;;;;;;5013183;28;20537;-62
2022/09/06 00:10:01;;;;;;;7.20;3.90;;;22.40;99.90;;;;;;5013338;28;20034;-62
2022/09/06 00:12:27;;;;;;;10.02;4.13;;;22.40;99.90;;;;;;5013500;28;20037;-62
2022/09/06 00:14:53;;;;;;;7.45;4.22;;;22.30;99.90;;;;;;5013117;28;20451;-61
2022/09/06 00:17:19;;;;;;;6.47;3.83;;;22.30;99.90;;;;;;5023226;28;20121;-62
2022/09/06 00:19:44;;;;;;;7.30;4.05;;;22.30;99.90;;;;;;5012925;28;20077;-62
2022/09/06 00:22:10;;;;;;;7.05;4.32;;;22.20;99.90;;;;;;5012791;28;20041;-62
2022/09/06 00:24:36;;;;;;;5.57;4.25;;;22.20;99.90;;;;;;5013125;28;20145;-62
2022/09/06 00:27:06;;;;;;;7.88;4.43;;;22.20;99.90;;;;;;5014343;28;20462;-62
2022/09/06 00:29:32;;;;;;;8.52;4.53;;;22.10;99.90;;;;;;5013604;28;20052;-63
2022/09/06 00:31:58;;;;;;;6.13;4.50;;;22.10;99.90;;;;;;5012995;28;20041;-62
2022/09/06 00:34:24;;;;;;;8.77;4.90;;;22.10;99.90;;;;;;5012681;28;20083;-63
2022/09/06 00:36:50;;;;;;;7.78;4.82;;;22.10;99.90;;;;;;5016924;28;20093;-62
2022/09/06 00:39:15;;;;;;;6.03;4.45;;;22.10;99.90;;;;;;5012777;28;20050;-63
2022/09/06 00:41:41;;;;;;;7.00;4.60;;;22.10;99.90;;;;;;5012920;28;20091;-62
2022/09/06 00:44:06;;;;;;;9.57;4.78;;;22.00;99.90;;;;;;5012593;28;20088;-63
2022/09/06 00:46:33;;;;;;;7.30;4.72;;;22.00;99.90;;;;;;5017728;28;20034;-61
2022/09/06 00:49:05;;;;;;;6.70;4.53;;;22.00;99.90;;;;;;4995465;28;20064;-62
2022/09/06 00:51:33;;;;;;;7.32;5.13;;;22.00;99.90;;;;;;4995101;28;20368;-62
2022/09/06 00:54:03;;;;;;;5.10;4.55;;;22.00;99.90;;;;;;5011676;28;20522;-60
2022/09/06 00:56:30;;;;;;;10.65;4.93;;;22.00;99.90;;;;;;5018605;28;20041;-60
2022/09/06 00:58:56;;;;;;;7.55;4.30;;;21.90;99.90;;;;;;5012317;28;20038;-59
2022/09/06 01:01:22;;;;;;;7.28;4.30;;;21.90;99.90;;;;;;4994806;28;20050;-62
2022/09/06 01:03:48;;;;;;;8.60;4.85;;;21.90;99.90;;;;;;5011985;28;20044;-62
2022/09/06 01:06:16;;;;;;;6.32;4.20;;;21.90;99.90;;;;;;5020560;28;20045;-62
2022/09/06 01:09:08;;;;;;;6.07;4.40;;;21.80;99.90;;;;;;5012213;28;20117;-62
2022/09/06 01:12:04;;;;;;;9.38;5.20;;;21.80;99.90;;;;;;5012268;28;20367;-61
2022/09/06 01:14:36;;;;;;;5.25;4.35;;;21.80;99.90;;;;;;5011999;28;20038;-62
2022/09/06 01:17:19;;;;;;;5.47;4.55;;;21.70;99.90;;;;;;5022017;28;20045;-62
2022/09/06 01:20:09;;;;;;;5.55;4.78;;;21.70;99.90;;;;;;5012335;28;20439;-62
2022/09/06 01:23:05;;;;;;;7.07;5.03;;;21.70;99.90;;;;;;5021303;28;20041;-62
2022/09/06 01:26:09;;;;;;;8.52;5.90;;;21.70;99.90;;;;;;5013928;28;20049;-62
2022/09/06 01:28:41;;;;;;;9.30;7.63;;;21.60;99.90;;;;;;4932967;29;20156;-62
2022/09/06 01:31:18;;;;;;;9.70;7.32;;;21.60;99.90;;;;;;4932579;29;20052;-63
2022/09/06 01:33:52;;;;;;;9.90;7.00;;;21.50;99.90;;;;;;4978882;28;20046;-61
2022/09/06 01:36:23;;;;;;;11.18;7.05;;;21.50;99.90;;;;;;5015322;28;20076;-62
2022/09/06 01:38:49;;;;;;;10.40;6.90;;;21.50;99.90;;;;;;5012371;28;20049;-63
2022/09/06 01:41:14;;;;;;;13.27;7.70;;;21.50;99.90;;;;;;5012559;28;20030;-62
2022/09/06 01:43:44;;;;;;;9.68;7.18;;;21.50;99.90;;;;;;5011618;28;20034;-61
2022/09/06 01:46:40;;;;;;;11.32;8.77;;;21.50;99.90;;;;;;5016674;28;20037;-61
2022/09/06 01:49:17;;;;;;;16.27;9.70;;;21.50;99.90;;;;;;5012517;28;20048;-63
2022/09/06 01:52:01;;;;;;;11.77;8.90;;;21.50;99.90;;;;;;4999468;28;20033;-62
2022/09/06 01:54:42;;;;;;;11.95;9.45;;;21.50;99.90;;;;;;4994379;28;20046;-62
2022/09/06 01:57:24;;;;;;;14.45;9.98;;;21.40;99.90;;;;;;5021712;28;20045;-63
2022/09/06 02:00:11;;;;;;;13.25;10.20;;;21.50;99.90;;;;;;5014108;28;20502;-62
2022/09/06 02:03:02;;;;;;;14.15;9.52;;;21.40;99.90;;;;;;5011804;28;20062;-63
2022/09/06 02:05:43;;;;;;;12.57;10.60;;;21.40;99.90;;;;;;5001681;28;20351;-63
2022/09/06 02:08:17;;;;;;;14.13;10.07;;;21.40;99.90;;;;;;5021367;28;20121;-62
2022/09/06 02:11:02;;;;;;;13.70;10.60;;;21.40;99.90;;;;;;5025837;28;20045;-62
2022/09/06 02:13:49;;;;;;;13.50;10.10;;;21.40;99.90;;;;;;5011893;28;20077;-63
2022/09/06 02:16:22;;;;;;;13.95;10.77;;;21.30;99.90;;;;;;5023086;28;20049;-62
2022/09/06 02:19:02;;;;;;;13.75;9.43;;;21.30;99.90;;;;;;5001320;28;20494;-62
2022/09/06 02:21:35;;;;;;;14.27;9.00;;;21.30;99.90;;;;;;5015537;28;20042;-62
2022/09/06 02:24:07;;;;;;;12.40;8.50;;;21.40;99.90;;;;;;5002033;28;20045;-64
2022/09/06 02:26:36;;;;;;;11.35;8.52;;;21.40;99.90;;;;;;5016039;28;20042;-62
2022/09/06 02:29:02;;;;;;;11.30;8.43;;;21.40;99.90;;;;;;5017341;28;20042;-61
2022/09/06 02:31:44;;;;;;;15.30;9.25;;;21.40;99.90;;;;;;5026912;28;20451;-62
2022/09/06 02:34:14;;;;;;;12.98;9.05;;;21.40;99.90;;;;;;5014540;28;20069;-62
2022/09/06 02:36:40;;;;;;;13.00;8.63;;;21.40;99.90;;;;;;5017073;28;20458;-62
2022/09/06 02:39:06;;;;;;;11.20;9.07;;;21.30;99.90;;;;;;4997188;28;20375;-62
2022/09/06 02:41:32;;;;;;;12.93;8.75;;;21.20;99.90;;;;;;4997677;28;20034;-62
2022/09/06 02:43:58;;;;;;;12.50;8.80;;;21.20;99.90;;;;;;4997340;28;20038;-63
2022/09/06 02:46:24;;;;;;;11.05;9.00;;;21.20;99.90;;;;;;5018602;28;20104;-63
2022/09/06 02:48:50;;;;;;;11.38;8.70;;;21.20;99.90;;;;;;4997436;28;20045;-62
2022/09/06 02:51:16;;;;;;;12.40;9.20;;;21.20;99.90;;;;;;5014734;28;20041;-63
2022/09/06 02:53:42;;;;;;;13.48;10.25;;;21.10;99.90;;;;;;5014400;28;20042;-61
2022/09/06 02:56:08;;;;;;;14.02;9.98;;;21.10;99.90;;;;;;5012703;28;20112;-62
2022/09/06 02:58:34;;;;;;;16.13;9.48;;;21.00;99.90;;;;;;5014862;28;20419;-62
2022/09/06 03:01:00;;;;;;;17.05;10.90;;;20.90;99.90;;;;;;5014160;28;20422;-61
2022/09/06 03:03:26;;;;;;;15.60;10.48;;;20.90;99.90;;;;;;5014371;28;20049;-62
2022/09/06 03:05:53;;;;;;;12.13;9.48;;;20.80;99.90;;;;;;5019167;28;20038;-62
2022/09/06 03:08:21;;;;;;;11.65;9.05;;;20.80;99.90;;;;;;5016416;28;20463;-62
2022/09/06 03:10:54;;;;;;;14.95;10.10;;;20.80;99.90;;;;;;5014630;28;20076;-63
2022/09/06 03:13:20;;;;;;;;;;;20.80;99.90;;;;;;5014376;28;20049;-62
2022/09/06 03:15:51;;;;;;;14.98;10.02;;;20.70;99.90;;;;;;5018022;28;19917;-63
2022/09/06 03:18:16;;;;;;;16.05;11.40;;;20.60;99.90;;;;;;5000070;28;20057;-62
2022/09/06 03:20:42;;;;;;;12.38;10.52;;;20.60;99.90;;;;;;5014231;28;20030;-61
2022/09/06 03:23:08;;;;;;;13.68;11.52;;;20.50;99.90;;;;;;5014065;28;20033;-62
2022/09/06 03:25:34;;;;;;;13.75;11.73;;;20.50;99.90;;;;;;4996556;28;20055;-62
2022/09/06 03:28:00;;;;;;;15.85;11.20;;;20.50;99.90;;;;;;5014073;28;20034;-61
2022/09/06 03:30:25;;;;;;;14.32;11.02;;;20.50;99.90;;;;;;4996470;28;20362;-62
2022/09/06 03:32:51;;;;;;;12.48;10.27;;;20.40;99.90;;;;;;5013911;28;20098;-62
2022/09/06 03:35:17;;;;;;;12.75;10.90;;;20.40;99.90;;;;;;5013815;28;20034;-61
2022/09/06 03:37:42;;;;;;;14.25;11.52;;;20.40;99.90;;;;;;5015530;28;20034;-61
2022/09/06 03:40:09;;;;;;;12.00;10.80;;;20.40;99.90;;;;;;5013757;28;20643;-62
2022/09/06 03:42:34;;;;;;;14.95;11.32;;;20.40;99.90;;;;;;5013860;28;20041;-62
2022/09/06 03:45:00;;;;;;;11.98;10.45;;;20.40;99.90;;;;;;5013437;28;20042;-62
2022/09/06 03:47:26;;;;;;;13.70;10.82;;;20.30;99.90;;;;;;4999741;28;20511;-61
2022/09/06 03:49:51;;;;;;;12.43;11.13;;;20.30;99.90;;;;;;5013553;28;20042;-62
2022/09/06 03:52:17;;;;;;;12.90;11.55;;;20.30;99.90;;;;;;5013256;28;20104;-62
2022/09/06 03:54:42;;;;;;;12.23;10.90;;;20.20;99.90;;;;;;4995465;28;20034;-63
2022/09/06 03:57:09;;;;;;;12.15;9.75;;;20.20;99.90;;;;;;5001500;28;20056;-62
2022/09/06 03:59:35;;;;;;;11.85;10.05;;;20.20;99.90;;;;;;5013479;28;20052;-62
2022/09/06 04:02:01;;;;;;;14.38;10.13;;;20.10;99.90;;;;;;5013180;28;20058;-62
2022/09/06 04:04:27;;;;;;;12.98;10.10;;;20.00;99.90;;;;;;5012798;28;20033;-62
2022/09/06 04:06:52;;;;;;;14.90;10.88;;;20.00;99.90;;;;;;5019613;28;20397;-63
2022/09/06 04:09:18;;;;;;;10.90;9.80;;;19.90;99.90;;;;;;5013145;28;20128;-63
2022/09/06 04:11:44;;;;;;;10.23;9.18;;;19.90;99.90;;;;;;4995544;28;20041;-62
2022/09/06 04:14:09;;;;;;;10.60;9.60;;;19.90;99.90;;;;;;5012780;28;20038;-63
2022/09/06 04:16:35;;;;;;;12.68;9.50;;;19.80;99.90;;;;;;5021449;28;20443;-63
2022/09/06 04:19:02;;;;;;;11.57;8.98;;;19.80;99.90;;;;;;5012972;28;20132;-62
2022/09/06 04:21:28;;;;;;;12.57;9.43;;;19.80;99.90;;;;;;5012924;28;20053;-62
2022/09/06 04:23:54;;;;;;;10.68;9.13;;;19.70;99.90;;;;;;4994852;28;20054;-62
2022/09/06 04:26:19;;;;;;;17.05;9.75;;;19.70;99.90;;;;;;5022609;28;20044;-63
2022/09/06 04:28:45;;;;;;;10.73;9.50;;;19.70;99.90;;;;;;5021163;28;20474;-63
2022/09/06 04:31:11;;;;;;;10.02;9.05;;;19.60;99.90;;;;;;5012343;28;20478;-62
2022/09/06 04:33:37;;;;;;;10.63;8.93;;;19.60;99.90;;;;;;5012338;28;20045;-62
2022/09/06 04:36:06;;;;;;;9.60;8.43;;;19.60;99.90;;;;;;5014046;28;20045;-63
2022/09/06 04:38:37;;;;;;;15.05;9.30;;;19.50;99.90;;;;;;5012654;28;20415;-62
2022/09/06 04:41:04;;;;;;;9.93;8.93;;;19.60;99.90;;;;;;5012230;28;20470;-62
2022/09/06 04:43:30;;;;;;;9.40;8.45;;;19.70;99.90;;;;;;5012095;28;20117;-62
2022/09/06 04:46:00;;;;;;;10.63;9.52;;;19.70;99.90;;;;;;5017885;28;20108;-62
2022/09/06 04:48:26;;;;;;;10.27;9.20;;;19.60;99.90;;;;;;5029698;28;20049;-63
2022/09/06 04:50:53;;;;;;;9.88;8.85;;;19.60;99.90;;;;;;5028400;28;20089;-63
2022/09/06 04:53:19;;;;;;;9.70;8.43;;;19.50;99.90;;;;;;5026813;28;20037;-62
2022/09/06 04:55:44;;;;;;;11.55;9.40;;;19.60;99.90;;;;;;5027516;28;20049;-62
2022/09/06 04:58:10;;;;;;;10.68;9.57;;;19.70;99.90;;;;;;5027981;28;20034;-62
2022/09/06 05:00:37;;;;;;;10.27;8.57;;;19.50;99.90;;;;;;5029555;28;20029;-61
2022/09/06 05:03:03;;;;;;;10.93;9.50;;;19.40;99.90;;;;;;5026973;28;20038;-61
2022/09/06 05:05:29;;;;;;;10.25;8.63;;;19.30;99.90;;;;;;5029233;28;20037;-63
2022/09/06 05:07:55;;;;;;;11.35;9.48;;;19.30;99.90;;;;;;5012031;28;20045;-62
2022/09/06 05:10:22;;;;;;;11.10;9.35;;;19.20;99.90;;;;;;4995091;28;20060;-61
2022/09/06 05:12:52;;;;;;;9.93;8.70;;;19.10;99.90;;;;;;5019048;28;20034;-61
2022/09/06 05:15:18;;;;;;;9.63;8.63;;;19.00;99.90;;;;;;5023553;28;20041;-61
2022/09/06 05:17:44;;;;;;;10.32;8.75;;;19.00;99.90;;;;;;5023173;28;20033;-60
2022/09/06 05:20:10;;;;;;;10.93;8.95;;;19.00;99.90;;;;;;5014631;28;20037;-61
2022/09/06 05:22:37;;;;;;;10.95;8.38;;;19.00;99.90;;;;;;5012288;28;20034;-61
2022/09/06 05:25:03;;;;;;;11.18;8.95;;;19.10;99.90;;;;;;4994314;28;20046;-62
2022/09/06 05:27:28;;;;;;;11.82;8.57;;;19.10;99.90;;;;;;5011445;28;20103;-62
2022/09/06 05:29:54;;;;;;;11.82;8.70;;;19.30;99.90;;;;;;5019913;28;20037;-61
2022/09/06 05:32:20;;;;;;;12.27;9.25;;;19.20;99.90;;;;;;4983108;28;20124;-60
2022/09/06 05:34:45;;;;;;;9.82;8.77;;;19.10;99.90;;;;;;5011857;28;20073;-59
2022/09/06 05:37:11;;;;;;;11.27;9.32;;;19.00;99.90;;;;;;4979258;28;20367;-59
2022/09/06 05:39:36;;;;;;;10.90;9.25;;;19.00;99.90;;;;;;5011836;28;20026;-60
2022/09/06 05:42:05;;;;;;;10.30;8.80;;;19.00;99.90;;;;;;5014374;28;20383;-60
2022/09/06 05:44:35;;;;;;;10.73;9.43;;;19.00;99.90;;;;;;5015282;28;20841;-60
2022/09/06 05:47:01;;;;;;;10.98;9.20;;;19.00;99.90;;;;;;5018292;28;20041;-61
2022/09/06 05:49:30;;;;;;;12.55;9.40;;;19.00;99.90;;;;;;5015389;28;20053;-60
2022/09/06 05:51:56;;;;;;;11.00;9.27;;;18.90;99.90;;;;;;5015566;28;20042;-60
2022/09/06 05:54:23;;;;;;;10.63;9.13;;;18.90;99.90;;;;;;5014793;28;20091;-60
2022/09/06 05:56:48;;;;;;;11.15;9.68;;;19.00;99.90;;;;;;5019192;28;20475;-60
2022/09/06 05:59:14;;;;;;;11.00;9.90;;;18.90;99.90;;;;;;4997911;28;20053;-61
2022/09/06 06:01:53;;;;;;;10.40;9.25;;;18.90;99.90;;;;;;5014580;28;20056;-61
2022/09/06 06:04:19;;;;;;;12.82;9.90;;;18.80;99.90;;;;;;5015001;28;20042;-60
2022/09/06 06:06:45;;;;;;;11.38;9.88;;;18.80;99.90;;;;;;5014783;28;20053;-60
2022/09/06 06:09:15;;;;;;;10.85;9.75;;;18.80;99.90;;;;;;5015221;28;20065;-60
2022/09/06 06:11:41;;;;;;;11.30;10.07;;;18.80;99.90;;;;;;5015163;28;20037;-60
2022/09/06 06:14:07;;;;;;;14.30;10.55;;;18.80;99.90;;;;;;5015022;28;20077;-60
2022/09/06 06:16:33;;;;;;;16.10;11.60;;;18.80;99.90;;;;;;5022464;28;20110;-60
2022/09/06 06:18:59;;;;;;;12.55;10.07;;;18.80;99.90;;;;;;5015060;28;20034;-62
2022/09/06 06:21:27;;;;;;;13.85;10.07;;;18.80;99.90;;;;;;4996724;28;20107;-61
2022/09/06 06:23:56;;;;;;;11.77;10.35;;;18.90;99.90;;;;;;5014117;28;20076;-61
2022/09/06 06:26:23;;;;;;;12.90;10.05;;;18.90;99.90;;;;;;5021946;28;20116;-61
2022/09/06 06:28:50;;;;;;;11.98;10.77;;;19.00;99.90;;;;;;5020559;28;20057;-59
2022/09/06 06:31:16;;;;;;;12.05;10.75;;;19.00;99.90;;;;;;5014913;28;20045;-61
2022/09/06 06:33:43;;;;;;;12.32;10.35;;;19.10;99.90;;;;;;5014667;28;20112;-60
2022/09/06 06:36:12;;;;;;;11.55;10.35;;;19.10;99.90;;;;;;5015274;28;20077;-61
2022/09/06 06:38:39;;;;;;;11.43;10.23;;;19.20;99.90;;;;;;5014711;28;20042;-60
2022/09/06 06:41:06;;;;;;;12.48;10.98;;;19.20;99.90;;;;;;5014842;28;20180;-60
2022/09/06 06:43:36;;;;;;;12.95;11.25;;;19.30;99.90;;;;;;5014538;28;20061;-60
2022/09/06 06:46:03;;;;;;;11.75;10.65;;;19.40;99.90;;;;;;5016807;28;20111;-60
2022/09/06 06:48:29;;;;;;;12.25;10.88;;;19.50;99.90;;;;;;5014538;28;20033;-60
2022/09/06 06:50:54;;;;;;;12.88;11.40;;;19.80;99.90;;;;;;4997227;28;20439;-60
2022/09/06 06:53:20;;;;;;;13.38;10.48;;;20.00;99.90;;;;;;5014132;28;20068;-61
2022/09/06 06:55:47;;;;;;;14.18;11.38;;;20.20;99.90;;;;;;5016354;28;20431;-60
2022/09/06 06:58:14;;;;;;;14.38;11.68;;;20.40;99.90;;;;;;5015669;28;20057;-60
2022/09/06 07:00:40;;;;;;;14.30;12.55;;;20.40;99.90;;;;;;5014491;28;20068;-62
2022/09/06 07:03:07;;;;;;;13.75;11.73;;;20.50;99.90;;;;;;5013667;28;20057;-61
2022/09/06 07:05:33;;;;;;;13.75;12.18;;;20.70;99.90;;;;;;5014599;28;20037;-61
2022/09/06 07:07:59;;;;;;;13.57;12.18;;;20.90;99.90;;;;;;5019175;28;20396;-62
2022/09/06 07:10:25;;;;;;;13.65;12.00;;;21.10;99.90;;;;;;5014269;28;20065;-61
2022/09/06 07:12:50;;;;;;;13.63;11.48;;;21.30;99.90;;;;;;5014054;28;20034;-61
2022/09/06 07:15:17;;;;;;;13.00;11.57;;;21.50;99.90;;;;;;4996597;28;20037;-61
2022/09/06 07:17:43;;;;;;;12.70;11.45;;;21.60;99.90;;;;;;5021011;28;20045;-61
2022/09/06 07:20:09;;;;;;;12.95;11.55;;;21.80;99.90;;;;;;5013873;28;20053;-62
2022/09/06 07:22:36;;;;;;;12.45;11.25;;;22.00;99.90;;;;;;5014115;28;20042;-61
2022/09/06 07:25:03;;;;;;;13.20;11.00;;;22.10;99.90;;;;;;5013726;28;20042;-61
2022/09/06 07:27:29;;;;;;;13.00;11.20;;;22.30;99.90;;;;;;5009005;28;20026;-62
2022/09/06 07:29:54;;;;;;;13.55;11.48;;;22.40;99.90;;;;;;5013900;28;20149;-61
2022/09/06 07:32:20;;;;;;;15.02;11.07;;;22.50;99.90;;;;;;4996260;28;20096;-62
2022/09/06 07:34:45;;;;;;;15.13;11.57;;;22.60;99.90;;;;;;4995962;28;20045;-61
2022/09/06 07:37:11;;;;;;;13.80;11.38;;;22.80;99.90;;;;;;5026965;28;20037;-61
2022/09/06 07:39:37;;;;;;;12.52;11.23;;;22.90;99.90;;;;;;5014238;28;20030;-61
2022/09/06 07:42:03;;;;;;;13.07;11.88;;;23.00;99.90;;;;;;5013860;28;20107;-61
2022/09/06 07:44:29;;;;;;;13.43;12.13;;;23.20;99.90;;;;;;5013199;28;20033;-61
2022/09/06 07:46:55;;;;;;;13.57;12.05;;;23.20;99.90;;;;;;5015214;28;20048;-61
2022/09/06 07:49:20;;;;;;;12.02;10.82;;;23.20;99.90;;;;;;5013528;28;20045;-61
2022/09/06 07:51:47;;;;;;;12.65;11.35;;;23.30;99.90;;;;;;5013265;28;20443;-61
2022/09/06 07:54:13;;;;;;;14.55;12.18;;;23.40;99.90;;;;;;5012847;28;20037;-61
2022/09/06 07:56:39;;;;;;;14.25;12.20;;;23.40;99.90;;;;;;5016437;28;20038;-61
2022/09/06 07:59:05;;;;;;;13.82;12.38;;;23.50;99.90;;;;;;5013318;28;20053;-61
2022/09/06 08:01:38;;;;;;;13.35;11.55;;;23.60;99.90;;;;;;4995358;28;20112;-62
2022/09/06 08:04:12;;;;;;;13.05;11.60;;;23.70;99.90;;;;;;5012529;28;20140;-61
2022/09/06 08:06:45;;;;;;;13.68;10.07;;;23.80;99.90;;;;;;5017889;28;20112;-61
2022/09/06 08:09:11;;;;;;;12.73;9.95;;;24.00;99.90;;;;;;5013123;28;20415;-62
2022/09/06 08:11:37;;;;;;;12.65;11.30;;;24.00;99.90;;;;;;5013211;28;20530;-61
2022/09/06 08:14:06;;;;;;;15.20;10.95;;;24.10;99.90;;;;;;5012744;28;20053;-61
2022/09/06 08:16:32;;;;;;;12.43;10.15;;;24.10;99.90;;;;;;5019327;28;20376;-62
2022/09/06 08:19:00;;;;;;;17.30;10.23;;;24.10;99.90;;;;;;4995376;28;20100;-61
2022/09/06 08:21:29;;;;;;;13.43;10.52;;;24.20;99.90;;;;;;4995463;28;20057;-61
2022/09/06 08:23:59;;;;;;;12.57;11.32;;;24.40;99.90;;;;;;5012506;28;20046;-63
2022/09/06 08:26:26;;;;;;;11.98;10.77;;;24.40;99.90;;;;;;5019251;28;20042;-62
2022/09/06 08:29:00;;;;;;;13.43;9.93;;;24.50;99.90;;;;;;5017982;28;20042;-62
2022/09/06 08:31:28;;;;;;;10.73;9.45;;;24.60;99.90;;;;;;5012861;28;20372;-62
2022/09/06 08:33:55;;;;;;;11.32;9.63;;;24.60;99.90;;;;;;5012528;28;20104;-62
2022/09/06 08:36:21;;;;;;;14.45;10.15;;;24.70;99.90;;;;;;5018447;28;20045;-63
2022/09/06 08:38:46;;;;;;;11.65;9.82;;;24.80;99.90;;;;;;5020305;28;20060;-62
2022/09/06 08:41:18;;;;;;;12.27;9.48;;;24.80;99.90;;;;;;5012443;28;20113;-63
2022/09/06 08:43:56;;;;;;;11.75;9.27;;;24.90;99.90;;;;;;5012070;28;20680;-61
2022/09/06 08:46:41;;;;;;;10.90;9.57;;;25.00;99.90;;;;;;5013679;28;20140;-62
2022/09/06 08:49:08;;;;;;;9.07;7.93;;;25.10;99.90;;;;;;5012587;28;20117;-61
2022/09/06 08:51:48;;;;;;;12.00;8.65;;;25.30;99.90;;;;;;5012554;28;20168;-62
2022/09/06 08:54:34;;;;;;;9.50;8.60;;;25.40;99.90;;;;;;5011981;28;20056;-61
2022/09/06 08:57:26;;;;;;;9.65;8.02;;;25.40;99.90;;;;;;5015033;28;20471;-62
2022/09/06 08:59:56;;;;;;;10.07;7.75;;;25.50;99.90;;;;;;5012394;28;20092;-62
2022/09/06 09:02:22;;;;;;;11.25;7.78;;;25.60;99.90;;;;;;5011937;28;20485;-62
2022/09/06 09:04:56;;;;;;;10.38;8.30;;;25.60;99.90;;;;;;5012070;28;20037;-61
2022/09/06 09:07:43;;;;;;;12.30;9.02;;;25.70;99.90;;;;;;5016735;28;20044;-63
2022/09/06 09:10:15;;;;;;;11.10;9.30;;;25.70;99.90;;;;;;5012189;28;20534;-61
2022/09/06 09:12:45;;;;;;;11.50;9.10;;;25.60;99.90;;;;;;5012206;28;20125;-62
2022/09/06 09:15:13;;;;;;;10.90;8.95;;;25.70;99.90;;;;;;5012357;28;20042;-61
2022/09/06 09:17:40;;;;;;;10.52;9.43;;;25.70;99.90;;;;;;5021639;28;20092;-62
2022/09/06 09:20:09;;;;;;;12.38;9.27;;;25.80;99.90;;;;;;5016318;28;20065;-61
2022/09/06 09:22:36;;;;;;;10.20;8.93;;;25.80;99.90;;;;;;5016003;28;20454;-61
2022/09/06 09:25:05;;;;;;;10.45;9.40;;;25.70;99.90;;;;;;5015797;28;20430;-62
2022/09/06 09:27:32;;;;;;;10.88;9.50;;;25.80;99.90;;;;;;5027622;28;20113;-62
2022/09/06 09:30:01;;;;;;;10.73;9.10;;;25.90;99.90;;;;;;4998566;28;20091;-61
2022/09/06 09:32:44;;;;;;;11.25;9.70;;;26.00;99.90;;;;;;5015873;28;20321;-62
2022/09/06 09:35:25;;;;;;;11.48;9.23;;;26.10;99.90;;;;;;5016079;28;20033;-60
2022/09/06 09:38:09;;;;;;;11.15;9.13;;;26.20;99.90;;;;;;4998766;28;20052;-63
2022/09/06 09:40:48;;;;;;;10.88;8.95;;;26.30;99.90;;;;;;5016167;28;20042;-62
2022/09/06 09:43:18;;;;;;;8.65;7.82;;;26.20;99.90;;;;;;5015679;28;20091;-63
2022/09/06 09:45:45;;;;;;;9.25;8.25;;;26.30;99.90;;;;;;5016188;28;20056;-61
2022/09/06 09:48:23;;;;;;;10.07;8.80;;;26.50;99.90;;;;;;5015039;28;20030;-61
2022/09/06 09:50:49;;;;;;;14.50;8.82;;;26.60;99.90;;;;;;5015809;28;20101;-62
2022/09/06 09:53:18;;;;;;;11.70;8.88;;;26.70;99.90;;;;;;5015223;28;20077;-62
2022/09/06 09:55:44;;;;;;;8.40;7.45;;;26.70;99.90;;;;;;5015845;28;20346;-62
2022/09/06 09:58:33;;;;;;;9.18;6.22;;;26.80;99.90;;;;;;5013355;28;20092;-61
2022/09/06 10:01:09;;;;;;;9.43;7.00;;;26.90;99.90;;;;;;5015415;28;20402;-61
2022/09/06 10:03:35;;;;;;;9.05;5.88;;;26.90;99.90;;;;;;4997885;28;20049;-61
2022/09/06 10:06:01;;;;;;;7.32;5.00;;;27.00;99.90;;;;;;5017847;28;20034;-61
2022/09/06 10:08:31;;;;;;;5.20;4.45;;;27.00;99.40;;;;;;5016417;28;20046;-63
2022/09/06 10:10:57;;;;;;;5.93;4.10;;;27.10;98.90;;;;;;5015501;28;20077;-62
2022/09/06 10:13:25;;;;;;;6.85;4.40;;;27.00;98.80;;;;;;5015044;28;20444;-62
2022/09/06 10:15:52;;;;;;;5.72;3.47;;;27.10;98.70;;;;;;5016263;28;20037;-61
2022/09/06 10:18:38;;;;;;;5.90;3.50;;;27.20;98.50;;;;;;5019328;28;20379;-62
2022/09/06 10:21:14;;;;;;;4.75;4.05;;;27.30;98.40;;;;;;4997888;28;20075;-62
2022/09/06 10:23:40;;;;;;;7.57;3.50;;;27.40;98.10;;;;;;5014672;28;20065;-62
2022/09/06 10:26:34;;;;;;;4.82;3.60;;;27.60;97.90;;;;;;5017790;28;20434;-61
2022/09/06 10:29:04;;;;;;;5.75;3.47;;;27.70;97.70;;;;;;5018520;28;20065;-62
2022/09/06 10:31:54;;;;;;;4.78;3.50;;;27.70;97.60;;;;;;5015104;28;20064;-62
2022/09/06 10:34:29;;;;;;;5.30;3.00;;;27.60;97.30;;;;;;5014494;28;20107;-62
2022/09/06 10:37:24;;;;;;;5.30;3.50;;;27.80;97.30;;;;;;5024360;28;20040;-62
2022/09/06 10:40:06;;;;;;;5.35;2.53;;;27.80;96.90;;;;;;5014952;28;20122;-63
2022/09/06 10:42:55;;;;;;;5.10;2.75;;;27.80;96.50;;;;;;4997032;28;20041;-62
2022/09/06 10:45:28;;;;;;;5.95;2.88;;;27.70;96.10;;;;;;5014813;28;20088;-62
2022/09/06 10:48:03;;;;;;;4.82;2.38;;;27.80;96.60;;;;;;5014779;28;20042;-62
2022/09/06 10:50:45;;;;;;;6.95;2.63;;;27.90;96.30;;;;;;5014650;28;20120;-62
2022/09/06 10:53:50;;;;;;;5.68;2.67;;;27.90;96.20;;;;;;5014103;28;20180;-61
2022/09/06 10:56:17;;;;;;;4.63;2.63;;;28.00;96.60;;;;;;5016351;28;20037;-61
2022/09/06 10:58:58;;;;;;;4.25;2.50;;;28.00;96.40;;;;;;5014233;28;20374;-61
2022/09/06 11:01:37;;;;;;;8.00;3.05;;;28.10;96.50;;;;;;5013746;28;20092;-61
2022/09/06 11:04:18;;;;;;;4.60;2.60;;;28.10;96.50;;;;;;5013054;28;20042;-62
2022/09/06 11:06:49;;;;;;;4.38;3.00;;;28.20;96.40;;;;;;5016488;28;20063;-62
2022/09/06 11:09:29;;;;;;;4.20;2.47;;;28.20;96.30;;;;;;5013297;28;20041;-61
2022/09/06 11:12:34;;;;;;;3.10;2.40;;;28.20;96.40;;;;;;5013071;28;20117;-61
2022/09/06 11:15:03;;;;;;;2.63;2.13;;;28.20;95.90;;;;;;4994266;28;20116;-61
2022/09/06 11:18:01;;;;;;;4.90;2.63;;;28.20;96.00;;;;;;5018260;28;20033;-60
2022/09/06 11:21:01;;;;;;;4.20;2.08;;;28.30;95.90;;;;;;4992138;28;20054;-61
2022/09/06 11:23:33;;;;;;;5.40;2.40;;;28.30;95.80;;;;;;5012630;28;20056;-61
2022/09/06 11:26:33;;;;;;;3.33;1.98;;;28.40;95.60;;;;;;5014611;28;20072;-61
2022/09/06 11:29:03;;;;;;;3.05;2.08;;;28.50;95.40;;;;;;5017114;28;20359;-60
2022/09/06 11:31:33;;;;;;;5.05;2.13;;;28.60;95.10;;;;;;5012949;28;20033;-60
2022/09/06 11:34:09;;;;;;;5.00;2.55;;;28.60;95.20;;;;;;5012607;28;20358;-61
2022/09/06 11:36:36;;;;;;;3.83;2.10;;;28.70;95.00;;;;;;5019248;28;20025;-61
2022/09/06 11:39:05;;;;;;;4.80;2.00;;;28.80;95.50;;;;;;5017455;28;20046;-60
2022/09/06 11:41:38;;;;;;;3.47;1.90;;;28.80;95.20;;;;;;5013041;28;20077;-60
2022/09/06 11:44:05;;;;;;;3.42;1.95;;;28.80;95.00;;;;;;4995256;28;20121;-61
2022/09/06 11:46:33;;;;;;;2.58;2.08;;;29.00;94.80;;;;;;5018135;28;20366;-61
2022/09/06 11:49:06;;;;;;;4.45;2.30;;;29.10;94.90;;;;;;5020393;28;20077;-62
2022/09/06 11:51:42;;;;;;;5.35;2.20;;;29.20;94.90;;;;;;4995217;28;20131;-61
2022/09/06 11:54:13;;;;;;;2.80;2.00;;;29.30;94.60;;;;;;5012195;28;20077;-61
2022/09/06 11:57:00;;;;;;;5.20;2.40;;;29.30;94.40;;;;;;5013595;28;20383;-61
2022/09/06 11:59:59;;;;;;;7.13;2.20;;;29.40;94.00;;;;;;4994925;28;20052;-60
2022/09/06 12:02:30;;;;;;;3.30;1.90;;;29.40;93.70;;;;;;4948979;28;1339489;-61
2022/09/06 12:05:05;;;;;;;4.00;2.08;;;29.30;93.90;;;;;;5013164;28;20089;-61
2022/09/06 12:07:34;;;;;;;4.30;2.05;;;29.40;93.90;;;;;;5015786;28;20352;-60
2022/09/06 12:10:30;;;;;;;3.30;2.35;;;29.40;94.10;;;;;;5013109;28;20030;-61
2022/09/06 12:12:57;;;;;;;7.80;2.45;;;29.30;93.40;;;;;;5012881;28;20436;-61
2022/09/06 12:15:25;;;;;;;4.80;2.28;;;29.20;93.90;;;;;;5012787;28;20375;-63
2022/09/06 12:17:51;;;;;;;5.90;2.17;;;29.20;94.00;;;;;;5017268;28;20037;-62
2022/09/06 12:20:49;;;;;;;6.75;2.40;;;29.20;94.30;;;;;;5012404;28;20073;-60
2022/09/06 12:23:33;;;;;;;4.88;2.20;;;29.20;94.20;;;;;;5011943;28;20145;-61
2022/09/06 12:26:09;;;;;;;3.78;2.05;;;29.30;94.20;;;;;;5013690;28;20363;-61
2022/09/06 12:28:48;;;;;;;5.25;2.30;;;29.30;94.20;;;;;;5020784;28;20033;-61
2022/09/06 12:31:31;;;;;;;3.55;2.45;;;29.30;94.20;;;;;;5012912;28;20077;-62
2022/09/06 12:33:57;;;;;;;3.15;2.30;;;29.40;94.20;;;;;;5012490;28;20049;-61
2022/09/06 12:36:30;;;;;;;3.53;2.55;;;29.40;94.20;;;;;;5016998;28;20331;-61
2022/09/06 12:39:03;;;;;;;4.35;2.60;;;29.40;94.10;;;;;;5019162;28;20038;-63
2022/09/06 12:41:35;;;;;;;4.45;2.30;;;29.40;93.80;;;;;;5012431;28;20455;-61
2022/09/06 12:44:04;;;;;;;3.15;2.47;;;29.50;93.90;;;;;;5012197;28;20080;-61
2022/09/06 12:46:31;;;;;;;4.22;2.35;;;29.40;93.90;;;;;;5013009;28;20350;-61
2022/09/06 12:49:00;;;;;;;3.75;2.10;;;29.40;93.90;;;;;;5012674;28;20057;-62
2022/09/06 12:51:25;;;;;;;4.70;2.60;;;29.60;93.90;;;;;;5012036;28;20571;-62
2022/09/06 12:53:51;;;;;;;3.63;2.10;;;29.70;93.70;;;;;;5012085;28;20046;-61
2022/09/06 12:56:20;;;;;;;2.85;1.92;;;29.80;93.60;;;;;;5013273;28;20041;-61